Gannet Bulker — V7TX5 — position and weather

sailwx.info

Track history (hours):
 
Tides and Currents Weather Stations Pressure Air Temp Water Temp Dewpoint Dewpoint Depression Visibility Wind Speed Wind Dir Waves Ship Positions

Gannet Bulker

Last reported at 2018-May-02 19:47 UTC. Time now 2018-May-21 12:33 UTC.
Position S 06°16' E 111°56'.
Warning: this ship's position is 18 days out of date.

Length 190 m; draft 7.8 m.

Type: Cargo ship. MMSI: 538003902.

Date/timePositionNaut miles runAvg speedWind from/ knotsBaromVisibWave heightAir tempDewpointWater temp
2018-May-02 19:47S 06°16' E 111°56'2412.3
2018-May-02 17:49S 06°16' E 111°32'612.2
2018-May-02 17:19S 06°17' E 111°26'412.3
2018-May-02 16:59S 06°17' E 111°22'712.1
2018-May-02 16:23S 06°17' E 111°14'812.1
2018-May-02 15:43S 06°17' E 111°06'311.7
2018-May-02 15:27S 06°18' E 111°03'611.7
2018-May-02 14:59S 06°19' E 110°58'611.4
2018-May-02 14:28S 06°20' E 110°52'611.7
2018-May-02 13:59S 06°21' E 110°46'711.5
2018-May-02 13:25S 06°22' E 110°40'511.4
2018-May-02 12:59S 06°25' E 110°36'611.5
2018-May-02 12:29S 06°30' E 110°33'611.0
2018-May-02 11:58S 06°35' E 110°30'611.6
2018-May-02 11:28S 06°40' E 110°28'911.7
2018-May-02 10:40S 06°49' E 110°26'411.6
2018-May-02 10:18S 06°53' E 110°25'3 7.9
2018-May-02 09:55S 06°56' E 110°25'0 0.0
2018-May-01 21:01S 06°57' E 110°25'0 0.0
2018-May-01 20:55S 06°57' E 110°25'0 0.0
2018-May-01 20:28S 06°57' E 110°25'0 0.0
2018-May-01 09:33S 06°57' E 110°25'0 0.0
2018-May-01 09:22S 06°57' E 110°25'0 0.0
2018-May-01 07:04S 06°57' E 110°25'0 0.0
2018-May-01 06:55S 06°57' E 110°25'0 0.0
2018-May-01 06:21S 06°57' E 110°25'0 0.0
2018-May-01 06:00S 06°57' E 110°25'0 0.0
2018-May-01 05:28S 06°57' E 110°25'  
2018-Apr-26 00:57S 05°43' E 107°11'510.7
2018-Apr-26 00:29S 05°43' E 107°06'610.9
2018-Apr-25 23:54S 05°43' E 106°59'410.8
2018-Apr-25 23:30S 05°44' E 106°55'510.8
2018-Apr-25 23:00S 05°45' E 106°50'510.6
2018-Apr-25 22:30S 05°46' E 106°45'610.6
2018-Apr-25 21:59S 05°47' E 106°39'510.6
2018-Apr-25 21:28S 05°47' E 106°34'  
Track history (hours):
 
Tides and Currents Weather Stations Pressure Air Temp Water Temp Dewpoint Dewpoint Depression Visibility Wind Speed Wind Dir Waves Ship Positions

Gannet Bulker

Last reported at 2018-May-02 19:47 UTC. Time now 2018-May-21 12:33 UTC.
Position S 06°16' E 111°56'.
Warning: this ship's position is 18 days out of date.

Length 190 m; draft 7.8 m.

Type: Cargo ship. MMSI: 538003902.

Date/timePositionNaut miles runAvg speedWind from/ knotsBaromVisibWave heightAir tempDewpointWater temp
2018-May-02 19:47S 06°16' E 111°56'2412.3
2018-May-02 17:49S 06°16' E 111°32'612.2
2018-May-02 17:19S 06°17' E 111°26'412.3
2018-May-02 16:59S 06°17' E 111°22'712.1
2018-May-02 16:23S 06°17' E 111°14'812.1
2018-May-02 15:43S 06°17' E 111°06'311.7
2018-May-02 15:27S 06°18' E 111°03'611.7
2018-May-02 14:59S 06°19' E 110°58'611.4
2018-May-02 14:28S 06°20' E 110°52'611.7
2018-May-02 13:59S 06°21' E 110°46'711.5
2018-May-02 13:25S 06°22' E 110°40'511.4
2018-May-02 12:59S 06°25' E 110°36'611.5
2018-May-02 12:29S 06°30' E 110°33'611.0
2018-May-02 11:58S 06°35' E 110°30'611.6
2018-May-02 11:28S 06°40' E 110°28'911.7
2018-May-02 10:40S 06°49' E 110°26'411.6
2018-May-02 10:18S 06°53' E 110°25'3 7.9
2018-May-02 09:55S 06°56' E 110°25'0 0.0
2018-May-01 21:01S 06°57' E 110°25'0 0.0
2018-May-01 20:55S 06°57' E 110°25'0 0.0
2018-May-01 20:28S 06°57' E 110°25'0 0.0
2018-May-01 09:33S 06°57' E 110°25'0 0.0
2018-May-01 09:22S 06°57' E 110°25'0 0.0
2018-May-01 07:04S 06°57' E 110°25'0 0.0
2018-May-01 06:55S 06°57' E 110°25'0 0.0
2018-May-01 06:21S 06°57' E 110°25'0 0.0
2018-May-01 06:00S 06°57' E 110°25'0 0.0
2018-May-01 05:28S 06°57' E 110°25'  
2018-Apr-26 00:57S 05°43' E 107°11'510.7
2018-Apr-26 00:29S 05°43' E 107°06'610.9
2018-Apr-25 23:54S 05°43' E 106°59'410.8
2018-Apr-25 23:30S 05°44' E 106°55'510.8
2018-Apr-25 23:00S 05°45' E 106°50'510.6
2018-Apr-25 22:30S 05°46' E 106°45'610.6
2018-Apr-25 21:59S 05°47' E 106°39'510.6
2018-Apr-25 21:28S 05°47' E 106°34'  

Dump ship's entire track history